sensor_id;sensor_type;location;lat;lon;timestamp;pressure;altitude;pressure_sealevel;temperature;humidity
14273;BME280;7220;49.450;11.052;2023-01-31T00:01:54;98761.16;;;2.63;100.00
14273;BME280;7220;49.450;11.052;2023-01-31T00:05:54;98766.34;;;2.67;100.00
14273;BME280;7220;49.450;11.052;2023-01-31T00:09:54;98756.72;;;2.66;100.00
14273;BME280;7220;49.450;11.052;2023-01-31T00:13:57;98761.97;;;2.66;100.00
14273;BME280;7220;49.450;11.052;2023-01-31T00:17:57;98770.75;;;2.64;100.00
14273;BME280;7220;49.450;11.052;2023-01-31T00:21:57;98774.38;;;2.53;100.00
14273;BME280;7220;49.450;11.052;2023-01-31T00:26:15;98770.88;;;2.55;100.00
14273;BME280;7220;49.450;11.052;2023-01-31T00:30:16;98776.97;;;2.57;100.00
14273;BME280;7220;49.450;11.052;2023-01-31T00:34:16;98786.53;;;2.61;100.00
14273;BME280;7220;49.450;11.052;2023-01-31T00:38:17;98781.38;;;2.53;100.00
14273;BME280;7220;49.450;11.052;2023-01-31T00:42:17;98788.34;;;2.56;100.00
14273;BME280;7220;49.450;11.052;2023-01-31T00:46:18;98791.81;;;2.59;100.00
14273;BME280;7220;49.450;11.052;2023-01-31T00:50:22;98788.22;;;2.66;100.00
14273;BME280;7220;49.450;11.052;2023-01-31T00:54:22;98804.94;;;2.59;100.00
14273;BME280;7220;49.450;11.052;2023-01-31T00:58:23;98793.53;;;2.60;100.00
14273;BME280;7220;49.450;11.052;2023-01-31T01:02:23;98804.97;;;2.56;100.00
14273;BME280;7220;49.450;11.052;2023-01-31T01:06:24;98797.16;;;2.50;100.00
14273;BME280;7220;49.450;11.052;2023-01-31T01:10:24;98801.56;;;2.48;100.00
14273;BME280;7220;49.450;11.052;2023-01-31T01:14:24;98783.31;;;2.39;100.00
14273;BME280;7220;49.450;11.052;2023-01-31T01:18:25;98799.03;;;2.40;100.00
14273;BME280;7220;49.450;11.052;2023-01-31T01:22:25;98807.69;;;2.45;100.00
14273;BME280;7220;49.450;11.052;2023-01-31T01:26:28;98815.63;;;2.41;100.00
14273;BME280;7220;49.450;11.052;2023-01-31T01:30:28;98792.91;;;2.38;100.00
14273;BME280;7220;49.450;11.052;2023-01-31T01:34:29;98801.56;;;2.48;100.00
14273;BME280;7220;49.450;11.052;2023-01-31T01:38:30;98799.16;;;2.28;100.00
14273;BME280;7220;49.450;11.052;2023-01-31T01:42:34;98807.78;;;2.39;100.00
14273;BME280;7220;49.450;11.052;2023-01-31T01:46:37;98819.16;;;2.40;100.00
14273;BME280;7220;49.450;11.052;2023-01-31T01:50:43;98794.78;;;2.28;100.00
14273;BME280;7220;49.450;11.052;2023-01-31T01:55:09;98788.66;;;2.29;100.00
14273;BME280;7220;49.450;11.052;2023-01-31T01:59:15;98802.81;;;2.11;100.00
14273;BME280;7220;49.450;11.052;2023-01-31T02:03:17;98787.00;;;2.19;100.00
14273;BME280;7220;49.450;11.052;2023-01-31T02:07:18;98800.25;;;2.03;100.00
14273;BME280;7220;49.450;11.052;2023-01-31T02:11:24;98812.44;;;2.11;100.00
14273;BME280;7220;49.450;11.052;2023-01-31T02:15:25;98815.13;;;2.04;100.00
14273;BME280;7220;49.450;11.052;2023-01-31T02:29:12;98818.59;;;2.05;100.00
14273;BME280;7220;49.450;11.052;2023-01-31T02:33:54;98830.88;;;2.00;100.00
14273;BME280;7220;49.450;11.052;2023-01-31T02:43:11;98836.91;;;2.11;100.00
14273;BME280;7220;49.450;11.052;2023-01-31T02:47:48;98838.72;;;2.04;100.00
14273;BME280;7220;49.450;11.052;2023-01-31T02:51:50;98837.94;;;1.95;100.00
14273;BME280;7220;49.450;11.052;2023-01-31T02:56:16;98846.66;;;1.95;100.00
14273;BME280;7220;49.450;11.052;2023-01-31T03:00:18;98846.72;;;1.87;100.00
14273;BME280;7220;49.450;11.052;2023-01-31T03:04:20;98838.91;;;1.83;100.00
14273;BME280;7220;49.450;11.052;2023-01-31T03:08:20;98848.47;;;1.87;100.00
14273;BME280;7220;49.450;11.052;2023-01-31T03:16:27;98857.31;;;1.73;100.00
14273;BME280;7220;49.450;11.052;2023-01-31T03:21:15;98841.53;;;1.77;100.00
14273;BME280;7220;49.450;11.052;2023-01-31T03:25:21;98852.06;;;1.73;100.00
14273;BME280;7220;49.450;11.052;2023-01-31T03:29:23;98855.59;;;1.71;100.00
14273;BME280;7220;49.450;11.052;2023-01-31T03:33:29;98883.53;;;1.69;100.00
14273;BME280;7220;49.450;11.052;2023-01-31T03:37:40;98893.13;;;1.73;100.00
14273;BME280;7220;49.450;11.052;2023-01-31T03:46:16;98892.22;;;1.77;100.00
14273;BME280;7220;49.450;11.052;2023-01-31T03:50:32;98886.19;;;1.67;100.00
14273;BME280;7220;49.450;11.052;2023-01-31T03:54:45;98899.28;;;1.66;100.00
14273;BME280;7220;49.450;11.052;2023-01-31T03:58:50;98905.34;;;1.76;100.00
14273;BME280;7220;49.450;11.052;2023-01-31T04:03:03;98910.56;;;1.79;100.00
14273;BME280;7220;49.450;11.052;2023-01-31T04:07:06;98909.69;;;1.75;100.00
14273;BME280;7220;49.450;11.052;2023-01-31T04:11:09;98917.53;;;1.83;100.00
14273;BME280;7220;49.450;11.052;2023-01-31T04:15:10;98919.25;;;1.82;100.00
14273;BME280;7220;49.450;11.052;2023-01-31T04:19:11;98937.59;;;1.82;100.00
14273;BME280;7220;49.450;11.052;2023-01-31T04:23:11;98941.97;;;1.83;100.00
14273;BME280;7220;49.450;11.052;2023-01-31T04:27:11;98932.38;;;1.84;100.00
14273;BME280;7220;49.450;11.052;2023-01-31T04:31:11;98938.44;;;1.89;100.00
14273;BME280;7220;49.450;11.052;2023-01-31T04:35:12;98948.97;;;1.83;100.00
14273;BME280;7220;49.450;11.052;2023-01-31T04:39:12;98941.97;;;1.86;100.00
14273;BME280;7220;49.450;11.052;2023-01-31T04:43:13;98938.47;;;1.87;100.00
14273;BME280;7220;49.450;11.052;2023-01-31T04:47:14;98945.47;;;1.84;100.00
14273;BME280;7220;49.450;11.052;2023-01-31T04:51:14;98933.22;;;1.86;100.00
14273;BME280;7220;49.450;11.052;2023-01-31T04:55:14;98935.88;;;1.81;100.00
14273;BME280;7220;49.450;11.052;2023-01-31T04:59:15;98923.59;;;1.85;100.00
14273;BME280;7220;49.450;11.052;2023-01-31T05:03:15;98924.53;;;1.78;100.00
14273;BME280;7220;49.450;11.052;2023-01-31T05:07:15;98927.16;;;1.79;100.00
14273;BME280;7220;49.450;11.052;2023-01-31T05:11:15;98918.38;;;1.85;100.00
14273;BME280;7220;49.450;11.052;2023-01-31T05:15:16;98932.31;;;1.88;100.00
14273;BME280;7220;49.450;11.052;2023-01-31T05:19:16;98936.72;;;1.88;100.00
14273;BME280;7220;49.450;11.052;2023-01-31T05:23:17;98929.69;;;1.95;100.00
14273;BME280;7220;49.450;11.052;2023-01-31T05:27:18;98921.81;;;1.93;100.00
14273;BME280;7220;49.450;11.052;2023-01-31T05:31:18;98920.06;;;1.95;100.00
14273;BME280;7220;49.450;11.052;2023-01-31T05:35:19;98917.41;;;1.98;100.00
14273;BME280;7220;49.450;11.052;2023-01-31T05:39:19;98914.75;;;2.04;100.00
14273;BME280;7220;49.450;11.052;2023-01-31T05:43:19;98924.38;;;2.02;100.00
14273;BME280;7220;49.450;11.052;2023-01-31T05:47:20;98912.09;;;2.08;100.00
14273;BME280;7220;49.450;11.052;2023-01-31T05:51:22;98921.78;;;1.96;100.00
14273;BME280;7220;49.450;11.052;2023-01-31T05:55:22;98909.53;;;1.97;100.00
14273;BME280;7220;49.450;11.052;2023-01-31T05:59:23;98933.94;;;2.08;100.00
14273;BME280;7220;49.450;11.052;2023-01-31T06:03:25;98939.19;;;2.11;100.00
14273;BME280;7220;49.450;11.052;2023-01-31T06:07:25;98928.69;;;2.10;100.00
14273;BME280;7220;49.450;11.052;2023-01-31T06:11:26;98929.56;;;2.09;100.00
14273;BME280;7220;49.450;11.052;2023-01-31T06:15:26;98923.47;;;2.07;100.00
14273;BME280;7220;49.450;11.052;2023-01-31T06:19:26;98936.59;;;2.07;100.00
14273;BME280;7220;49.450;11.052;2023-01-31T06:23:27;98947.03;;;2.10;100.00
14273;BME280;7220;49.450;11.052;2023-01-31T06:27:31;98937.41;;;2.09;100.00
14273;BME280;7220;49.450;11.052;2023-01-31T06:31:31;98950.56;;;2.05;100.00
14273;BME280;7220;49.450;11.052;2023-01-31T06:35:31;98950.50;;;2.12;100.00
14273;BME280;7220;49.450;11.052;2023-01-31T06:39:33;98947.88;;;2.15;100.00
14273;BME280;7220;49.450;11.052;2023-01-31T06:43:33;98947.00;;;2.16;100.00
14273;BME280;7220;49.450;11.052;2023-01-31T06:47:33;98952.22;;;2.17;100.00
14273;BME280;7220;49.450;11.052;2023-01-31T06:51:33;98956.59;;;2.15;100.00
14273;BME280;7220;49.450;11.052;2023-01-31T06:55:34;98952.25;;;2.13;100.00
14273;BME280;7220;49.450;11.052;2023-01-31T06:59:34;98954.00;;;2.14;100.00
14273;BME280;7220;49.450;11.052;2023-01-31T07:03:34;98950.50;;;2.15;100.00
14273;BME280;7220;49.450;11.052;2023-01-31T07:07:35;98952.19;;;2.20;100.00
14273;BME280;7220;49.450;11.052;2023-01-31T07:11:36;98950.44;;;2.21;100.00
14273;BME280;7220;49.450;11.052;2023-01-31T07:15:36;98955.69;;;2.24;100.00
14273;BME280;7220;49.450;11.052;2023-01-31T07:19:37;98965.34;;;2.17;100.00
14273;BME280;7220;49.450;11.052;2023-01-31T07:23:37;98961.84;;;2.18;100.00
14273;BME280;7220;49.450;11.052;2023-01-31T07:27:37;98952.25;;;2.16;100.00
14273;BME280;7220;49.450;11.052;2023-01-31T07:31:38;98962.81;;;2.07;100.00
14273;BME280;7220;49.450;11.052;2023-01-31T07:35:40;98956.78;;;1.94;100.00
14273;BME280;7220;49.450;11.052;2023-01-31T07:39:41;98958.50;;;1.93;100.00
14273;BME280;7220;49.450;11.052;2023-01-31T07:43:41;98965.53;;;1.85;100.00
14273;BME280;7220;49.450;11.052;2023-01-31T07:47:41;98971.66;;;1.87;100.00
14273;BME280;7220;49.450;11.052;2023-01-31T07:51:42;98978.69;;;1.80;100.00
14273;BME280;7220;49.450;11.052;2023-01-31T07:55:42;98989.06;;;1.97;100.00
14273;BME280;7220;49.450;11.052;2023-01-31T07:59:46;98999.53;;;2.00;100.00
14273;BME280;7220;49.450;11.052;2023-01-31T08:03:46;99003.09;;;1.90;100.00
14273;BME280;7220;49.450;11.052;2023-01-31T08:07:46;99002.19;;;1.94;100.00
14273;BME280;7220;49.450;11.052;2023-01-31T08:12:07;99012.72;;;1.91;100.00
14273;BME280;7220;49.450;11.052;2023-01-31T08:16:08;99011.81;;;1.95;100.00
14273;BME280;7220;49.450;11.052;2023-01-31T08:20:10;98993.47;;;1.91;100.00
14273;BME280;7220;49.450;11.052;2023-01-31T08:24:10;98992.66;;;1.78;100.00
14273;BME280;7220;49.450;11.052;2023-01-31T08:28:11;99000.56;;;1.75;100.00
14273;BME280;7220;49.450;11.052;2023-01-31T08:32:11;99004.94;;;1.69;100.00
14273;BME280;7220;49.450;11.052;2023-01-31T08:36:16;99027.66;;;1.70;100.00
14273;BME280;7220;49.450;11.052;2023-01-31T08:40:17;99023.28;;;1.72;100.00
14273;BME280;7220;49.450;11.052;2023-01-31T08:44:18;99008.25;;;2.05;100.00
14273;BME280;7220;49.450;11.052;2023-01-31T08:48:18;99018.56;;;2.29;100.00
14273;BME280;7220;49.450;11.052;2023-01-31T08:52:18;99007.94;;;2.49;100.00
14273;BME280;7220;49.450;11.052;2023-01-31T08:56:19;99002.69;;;2.50;100.00
14273;BME280;7220;49.450;11.052;2023-01-31T09:00:20;99007.06;;;2.51;100.00
14273;BME280;7220;49.450;11.052;2023-01-31T09:04:20;98990.28;;;2.66;100.00
14273;BME280;7220;49.450;11.052;2023-01-31T09:08:21;98999.91;;;2.67;100.00
14273;BME280;7220;49.450;11.052;2023-01-31T09:12:21;99001.63;;;2.70;100.00
14273;BME280;7220;49.450;11.052;2023-01-31T09:16:21;99012.22;;;2.59;100.00
14273;BME280;7220;49.450;11.052;2023-01-31T09:20:22;99011.38;;;2.57;100.00
14273;BME280;7220;49.450;11.052;2023-01-31T09:24:22;99011.41;;;2.51;100.00
14273;BME280;7220;49.450;11.052;2023-01-31T09:28:23;99007.84;;;2.58;100.00
14273;BME280;7220;49.450;11.052;2023-01-31T09:32:23;99000.97;;;2.48;100.00
14273;BME280;7220;49.450;11.052;2023-01-31T09:36:24;99008.78;;;2.52;100.00
14273;BME280;7220;49.450;11.052;2023-01-31T09:40:25;99008.78;;;2.54;100.00
14273;BME280;7220;49.450;11.052;2023-01-31T09:44:35;98984.22;;;2.61;100.00
14273;BME280;7220;49.450;11.052;2023-01-31T09:48:40;98998.13;;;2.71;100.00
14273;BME280;7220;49.450;11.052;2023-01-31T09:52:42;99004.13;;;2.84;99.71
14273;BME280;7220;49.450;11.052;2023-01-31T10:01:20;98999.53;;;3.05;98.95
14273;BME280;7220;49.450;11.052;2023-01-31T10:10:02;98981.84;;;3.24;98.49
14273;BME280;7220;49.450;11.052;2023-01-31T10:14:32;98985.41;;;3.16;97.82
14273;BME280;7220;49.450;11.052;2023-01-31T10:18:37;98965.97;;;3.33;96.91
14273;BME280;7220;49.450;11.052;2023-01-31T10:22:49;98962.47;;;3.33;96.83
14273;BME280;7220;49.450;11.052;2023-01-31T10:26:54;98960.69;;;3.36;97.56
14273;BME280;7220;49.450;11.052;2023-01-31T10:31:06;98949.78;;;3.67;95.78
14273;BME280;7220;49.450;11.052;2023-01-31T10:35:20;98950.59;;;3.71;94.01
14273;BME280;7220;49.450;11.052;2023-01-31T10:39:27;98932.91;;;3.81;93.88
14273;BME280;7220;49.450;11.052;2023-01-31T10:43:49;98942.66;;;3.75;93.99
14273;BME280;7220;49.450;11.052;2023-01-31T10:48:33;98931.22;;;3.78;93.75
14273;BME280;7220;49.450;11.052;2023-01-31T10:52:27;98933.75;;;3.86;92.51
14273;BME280;7220;49.450;11.052;2023-01-31T10:56:36;98919.06;;;3.71;92.08
14273;BME280;7220;49.450;11.052;2023-01-31T11:00:38;98922.53;;;3.73;92.10
14273;BME280;7220;49.450;11.052;2023-01-31T11:04:40;98916.41;;;3.72;92.68
14273;BME280;7220;49.450;11.052;2023-01-31T11:08:54;98940.34;;;3.52;92.95
14273;BME280;7220;49.450;11.052;2023-01-31T11:13:01;98924.66;;;3.44;93.60
14273;BME280;7220;49.450;11.052;2023-01-31T11:21:34;98907.00;;;3.54;93.64
14273;BME280;7220;49.450;11.052;2023-01-31T11:25:35;98915.63;;;3.66;92.50
14273;BME280;7220;49.450;11.052;2023-01-31T11:29:47;98893.41;;;3.87;91.68
14273;BME280;7220;49.450;11.052;2023-01-31T11:34:00;98883.41;;;4.10;89.29
14273;BME280;7220;49.450;11.052;2023-01-31T11:42:15;98866.84;;;4.54;87.13
14273;BME280;7220;49.450;11.052;2023-01-31T11:46:16;98866.88;;;4.52;86.40
14273;BME280;7220;49.450;11.052;2023-01-31T11:50:25;98861.91;;;4.37;86.38
14273;BME280;7220;49.450;11.052;2023-01-31T11:54:32;98849.72;;;4.31;87.85
14273;BME280;7220;49.450;11.052;2023-01-31T11:58:36;98829.25;;;3.99;89.20
14273;BME280;7220;49.450;11.052;2023-01-31T12:02:39;98822.50;;;3.81;90.36
14273;BME280;7220;49.450;11.052;2023-01-31T12:06:40;98833.31;;;3.62;91.22
14273;BME280;7220;49.450;11.052;2023-01-31T12:10:42;98832.47;;;3.60;91.97
14273;BME280;7220;49.450;11.052;2023-01-31T12:14:46;98831.69;;;3.53;92.42
14273;BME280;7220;49.450;11.052;2023-01-31T12:39:53;98793.19;;;3.51;94.30
14273;BME280;7220;49.450;11.052;2023-01-31T12:48:21;98811.88;;;3.30;96.21
14273;BME280;7220;49.450;11.052;2023-01-31T13:01:32;98826.06;;;3.19;97.09
14273;BME280;7220;49.450;11.052;2023-01-31T13:05:45;98833.13;;;3.13;98.20
14273;BME280;7220;49.450;11.052;2023-01-31T13:09:50;98831.50;;;3.03;99.02
14273;BME280;7220;49.450;11.052;2023-01-31T13:13:56;98841.91;;;3.12;98.79
14273;BME280;7220;49.450;11.052;2023-01-31T13:18:02;98813.97;;;3.08;99.08
14273;BME280;7220;49.450;11.052;2023-01-31T13:22:10;98831.50;;;3.03;98.71
14273;BME280;7220;49.450;11.052;2023-01-31T13:26:31;98824.56;;;3.00;98.78
14273;BME280;7220;49.450;11.052;2023-01-31T13:34:51;98806.41;;;2.83;100.00
14273;BME280;7220;49.450;11.052;2023-01-31T13:38:52;98787.13;;;2.83;100.00
14273;BME280;7220;49.450;11.052;2023-01-31T13:42:53;98773.97;;;2.86;100.00
14273;BME280;7220;49.450;11.052;2023-01-31T13:47:01;98751.28;;;2.82;100.00
14273;BME280;7220;49.450;11.052;2023-01-31T13:51:16;98733.72;;;2.87;100.00
14273;BME280;7220;49.450;11.052;2023-01-31T13:55:23;98735.44;;;2.90;100.00
14273;BME280;7220;49.450;11.052;2023-01-31T13:59:29;98725.56;;;3.06;100.00
14273;BME280;7220;49.450;11.052;2023-01-31T14:12:37;98711.47;;;3.11;100.00
14273;BME280;7220;49.450;11.052;2023-01-31T14:16:40;98706.19;;;3.13;100.00
14273;BME280;7220;49.450;11.052;2023-01-31T14:20:42;98731.56;;;3.14;100.00
14273;BME280;7220;49.450;11.052;2023-01-31T14:28:46;98714.16;;;3.08;100.00
14273;BME280;7220;49.450;11.052;2023-01-31T14:33:32;98706.13;;;3.18;100.00
14273;BME280;7220;49.450;11.052;2023-01-31T14:37:30;98704.47;;;3.12;99.83
14273;BME280;7220;49.450;11.052;2023-01-31T14:46:50;98685.19;;;3.13;99.96
14273;BME280;7220;49.450;11.052;2023-01-31T14:51:07;98708.03;;;3.08;99.89
14273;BME280;7220;49.450;11.052;2023-01-31T15:03:52;98676.28;;;3.23;98.88
14273;BME280;7220;49.450;11.052;2023-01-31T15:12:54;98646.44;;;3.27;98.20
14273;BME280;7220;49.450;11.052;2023-01-31T15:17:42;98645.19;;;3.50;96.07
14273;BME280;7220;49.450;11.052;2023-01-31T15:21:27;98639.72;;;3.61;95.42
14273;BME280;7220;49.450;11.052;2023-01-31T15:25:33;98656.19;;;3.71;95.00
14273;BME280;7220;49.450;11.052;2023-01-31T15:30:06;98659.66;;;3.73;94.41
14273;BME280;7220;49.450;11.052;2023-01-31T15:34:15;98667.59;;;3.70;94.43
14273;BME280;7220;49.450;11.052;2023-01-31T15:38:27;98667.66;;;3.65;94.25
14273;BME280;7220;49.450;11.052;2023-01-31T15:42:31;98677.31;;;3.65;94.88
14273;BME280;7220;49.450;11.052;2023-01-31T15:46:32;98682.53;;;3.68;94.22
14273;BME280;7220;49.450;11.052;2023-01-31T15:50:34;98694.06;;;3.59;94.60
14273;BME280;7220;49.450;11.052;2023-01-31T15:54:35;98692.38;;;3.56;94.17
14273;BME280;7220;49.450;11.052;2023-01-31T15:58:36;98688.84;;;3.57;94.63
14273;BME280;7220;49.450;11.052;2023-01-31T16:02:36;98681.72;;;3.62;94.22
14273;BME280;7220;49.450;11.052;2023-01-31T16:06:38;98673.19;;;3.51;95.20
14273;BME280;7220;49.450;11.052;2023-01-31T16:10:40;98661.13;;;3.38;96.24
14273;BME280;7220;49.450;11.052;2023-01-31T16:14:44;98697.84;;;3.42;96.23
14273;BME280;7220;49.450;11.052;2023-01-31T16:18:51;98704.91;;;3.39;97.06
14273;BME280;7220;49.450;11.052;2023-01-31T16:22:56;98691.78;;;3.39;97.33
14273;BME280;7220;49.450;11.052;2023-01-31T16:26:57;98675.00;;;3.46;97.23
14273;BME280;7220;49.450;11.052;2023-01-31T16:31:07;98678.50;;;3.48;96.73
14273;BME280;7220;49.450;11.052;2023-01-31T16:35:21;98673.13;;;3.54;97.35
14273;BME280;7220;49.450;11.052;2023-01-31T16:39:38;98672.19;;;3.58;96.92
14273;BME280;7220;49.450;11.052;2023-01-31T16:43:41;98672.06;;;3.65;98.29
14273;BME280;7220;49.450;11.052;2023-01-31T16:47:47;98669.47;;;3.61;99.27
14273;BME280;7220;49.450;11.052;2023-01-31T16:56:17;98663.75;;;3.38;100.00
14273;BME280;7220;49.450;11.052;2023-01-31T17:04:24;98657.59;;;3.42;100.00
14273;BME280;7220;49.450;11.052;2023-01-31T17:08:24;98652.41;;;3.37;100.00
14273;BME280;7220;49.450;11.052;2023-01-31T17:12:28;98638.41;;;3.35;100.00
14273;BME280;7220;49.450;11.052;2023-01-31T17:16:28;98642.88;;;3.31;100.00
14273;BME280;7220;49.450;11.052;2023-01-31T17:20:29;98648.91;;;3.37;100.00
14273;BME280;7220;49.450;11.052;2023-01-31T17:24:29;98652.31;;;3.42;100.00
